sensor_id;sensor_type;location;lat;lon;timestamp;P1;durP1;ratioP1;P2;durP2;ratioP2
45734;SDS011;31446;49.632;8.328;2023-04-15T00:12:29;10.50;;;3.40;;
45734;SDS011;31446;49.632;8.328;2023-04-15T00:27:35;8.80;;;4.18;;
45734;SDS011;31446;49.632;8.328;2023-04-15T00:42:42;8.98;;;3.63;;
45734;SDS011;31446;49.632;8.328;2023-04-15T00:57:49;12.05;;;3.58;;
45734;SDS011;31446;49.632;8.328;2023-04-15T01:12:55;9.48;;;3.72;;
45734;SDS011;31446;49.632;8.328;2023-04-15T01:28:02;7.25;;;3.03;;
45734;SDS011;31446;49.632;8.328;2023-04-15T01:43:09;9.90;;;3.75;;
45734;SDS011;31446;49.632;8.328;2023-04-15T01:58:15;14.18;;;3.28;;
45734;SDS011;31446;49.632;8.328;2023-04-15T02:13:22;14.23;;;3.53;;
45734;SDS011;31446;49.632;8.328;2023-04-15T02:28:28;7.65;;;3.67;;
45734;SDS011;31446;49.632;8.328;2023-04-15T02:43:35;10.80;;;3.83;;
45734;SDS011;31446;49.632;8.328;2023-04-15T02:58:42;8.23;;;4.30;;
45734;SDS011;31446;49.632;8.328;2023-04-15T03:13:49;11.27;;;3.50;;
45734;SDS011;31446;49.632;8.328;2023-04-15T03:28:55;10.70;;;3.63;;
45734;SDS011;31446;49.632;8.328;2023-04-15T03:44:02;12.95;;;2.95;;
45734;SDS011;31446;49.632;8.328;2023-04-15T03:59:08;10.52;;;3.63;;
45734;SDS011;31446;49.632;8.328;2023-04-15T04:14:15;10.65;;;3.92;;
45734;SDS011;31446;49.632;8.328;2023-04-15T04:29:21;11.80;;;4.90;;
45734;SDS011;31446;49.632;8.328;2023-04-15T04:44:28;13.15;;;4.70;;
45734;SDS011;31446;49.632;8.328;2023-04-15T04:59:34;12.75;;;4.40;;
45734;SDS011;31446;49.632;8.328;2023-04-15T05:14:40;21.05;;;4.88;;
45734;SDS011;31446;49.632;8.328;2023-04-15T05:29:48;11.00;;;4.60;;
45734;SDS011;31446;49.632;8.328;2023-04-15T05:44:55;12.55;;;5.05;;
45734;SDS011;31446;49.632;8.328;2023-04-15T06:00:01;10.95;;;4.43;;
45734;SDS011;31446;49.632;8.328;2023-04-15T06:15:10;14.13;;;5.32;;
45734;SDS011;31446;49.632;8.328;2023-04-15T06:30:16;19.50;;;5.53;;
45734;SDS011;31446;49.632;8.328;2023-04-15T06:45:23;13.10;;;5.07;;
45734;SDS011;31446;49.632;8.328;2023-04-15T07:00:29;11.95;;;3.92;;
45734;SDS011;31446;49.632;8.328;2023-04-15T07:15:36;10.38;;;4.03;;
45734;SDS011;31446;49.632;8.328;2023-04-15T07:30:43;12.10;;;3.78;;
45734;SDS011;31446;49.632;8.328;2023-04-15T07:45:49;8.73;;;3.65;;
45734;SDS011;31446;49.632;8.328;2023-04-15T08:00:56;9.45;;;4.57;;
45734;SDS011;31446;49.632;8.328;2023-04-15T08:16:15;9.25;;;4.30;;
45734;SDS011;31446;49.632;8.328;2023-04-15T09:33:55;9.60;;;4.70;;
45734;SDS011;31446;49.632;8.328;2023-04-15T09:49:09;12.50;;;4.63;;
45734;SDS011;31446;49.632;8.328;2023-04-15T10:04:21;13.52;;;4.78;;
45734;SDS011;31446;49.632;8.328;2023-04-15T10:19:30;10.88;;;4.60;;
45734;SDS011;31446;49.632;8.328;2023-04-15T10:34:46;7.85;;;4.05;;
45734;SDS011;31446;49.632;8.328;2023-04-15T10:49:59;10.15;;;4.30;;
45734;SDS011;31446;49.632;8.328;2023-04-15T11:05:07;10.00;;;3.30;;
45734;SDS011;31446;49.632;8.328;2023-04-15T11:20:16;4.38;;;2.20;;
45734;SDS011;31446;49.632;8.328;2023-04-15T11:35:23;7.75;;;3.03;;
45734;SDS011;31446;49.632;8.328;2023-04-15T11:50:30;7.47;;;2.95;;
45734;SDS011;31446;49.632;8.328;2023-04-15T12:05:36;1.65;;;0.73;;
45734;SDS011;31446;49.632;8.328;2023-04-15T12:21:13;1.55;;;0.80;;
45734;SDS011;31446;49.632;8.328;2023-04-15T12:36:21;3.45;;;0.47;;
45734;SDS011;31446;49.632;8.328;2023-04-15T12:51:28;1.30;;;0.75;;
45734;SDS011;31446;49.632;8.328;2023-04-15T13:06:34;4.25;;;2.40;;
45734;SDS011;31446;49.632;8.328;2023-04-15T13:21:42;1.90;;;0.60;;
45734;SDS011;31446;49.632;8.328;2023-04-15T13:36:50;2.22;;;1.73;;
45734;SDS011;31446;49.632;8.328;2023-04-15T13:51:57;1.88;;;0.60;;
45734;SDS011;31446;49.632;8.328;2023-04-15T14:07:03;5.18;;;4.10;;
45734;SDS011;31446;49.632;8.328;2023-04-15T14:22:13;1.13;;;0.98;;
45734;SDS011;31446;49.632;8.328;2023-04-15T14:37:20;2.70;;;1.30;;
45734;SDS011;31446;49.632;8.328;2023-04-15T14:52:29;1.35;;;1.20;;
45734;SDS011;31446;49.632;8.328;2023-04-15T15:07:40;8.32;;;2.08;;
45734;SDS011;31446;49.632;8.328;2023-04-15T15:22:47;1.50;;;1.40;;
45734;SDS011;31446;49.632;8.328;2023-04-15T15:37:53;1.20;;;1.10;;
45734;SDS011;31446;49.632;8.328;2023-04-15T15:53:02;2.53;;;1.15;;
45734;SDS011;31446;49.632;8.328;2023-04-15T16:08:08;1.50;;;1.40;;
45734;SDS011;31446;49.632;8.328;2023-04-15T16:23:23;3.42;;;2.28;;
45734;SDS011;31446;49.632;8.328;2023-04-15T16:38:37;4.55;;;2.92;;
45734;SDS011;31446;49.632;8.328;2023-04-15T16:53:44;10.50;;;3.50;;
45734;SDS011;31446;49.632;8.328;2023-04-15T17:08:50;2.85;;;2.30;;
45734;SDS011;31446;49.632;8.328;2023-04-15T17:23:57;3.42;;;3.10;;
45734;SDS011;31446;49.632;8.328;2023-04-15T17:39:03;3.38;;;2.45;;
45734;SDS011;31446;49.632;8.328;2023-04-15T17:54:09;10.05;;;6.93;;
45734;SDS011;31446;49.632;8.328;2023-04-15T18:09:16;5.55;;;4.45;;
45734;SDS011;31446;49.632;8.328;2023-04-15T18:24:22;6.43;;;4.80;;
45734;SDS011;31446;49.632;8.328;2023-04-15T18:39:29;8.38;;;4.53;;
45734;SDS011;31446;49.632;8.328;2023-04-15T18:54:35;7.88;;;5.90;;
45734;SDS011;31446;49.632;8.328;2023-04-15T19:09:42;9.63;;;5.82;;
45734;SDS011;31446;49.632;8.328;2023-04-15T19:24:49;8.98;;;7.63;;
45734;SDS011;31446;49.632;8.328;2023-04-15T19:39:56;10.15;;;7.93;;
45734;SDS011;31446;49.632;8.328;2023-04-15T19:55:02;9.10;;;7.07;;
45734;SDS011;31446;49.632;8.328;2023-04-15T20:10:09;12.68;;;7.75;;
45734;SDS011;31446;49.632;8.328;2023-04-15T20:25:16;8.95;;;8.02;;
45734;SDS011;31446;49.632;8.328;2023-04-15T20:40:22;7.78;;;6.40;;
45734;SDS011;31446;49.632;8.328;2023-04-15T20:55:29;7.55;;;5.60;;
45734;SDS011;31446;49.632;8.328;2023-04-15T21:10:36;7.50;;;6.22;;
45734;SDS011;31446;49.632;8.328;2023-04-15T21:25:42;7.22;;;6.13;;
45734;SDS011;31446;49.632;8.328;2023-04-15T21:40:50;6.63;;;5.60;;
45734;SDS011;31446;49.632;8.328;2023-04-15T21:55:57;7.55;;;6.47;;
45734;SDS011;31446;49.632;8.328;2023-04-15T22:11:03;6.88;;;5.30;;
45734;SDS011;31446;49.632;8.328;2023-04-15T22:26:10;7.53;;;5.50;;
45734;SDS011;31446;49.632;8.328;2023-04-15T22:41:16;7.25;;;5.38;;
45734;SDS011;31446;49.632;8.328;2023-04-15T22:56:23;10.07;;;6.60;;
45734;SDS011;31446;49.632;8.328;2023-04-15T23:11:29;13.13;;;9.70;;
45734;SDS011;31446;49.632;8.328;2023-04-15T23:26:36;13.95;;;10.65;;
45734;SDS011;31446;49.632;8.328;2023-04-15T23:41:42;20.20;;;13.88;;
45734;SDS011;31446;49.632;8.328;2023-04-15T23:56:48;18.23;;;13.65;;
